Time;durP1;ratioP1;P1;durP2;ratioP2;P2;SDS_P1;SDS_P2;PMS_P1;PMS_P2;Temp;Humidity;BMP_temperature;BMP_pressure;BME280_temperature;BME280_humidity;BME280_pressure;Samples;Min_cycle;Max_cycle;Signal;HPM_P1;HPM_P2
2021/05/25 00:02:05;;;;;;;3.22;0.20;;;10.00;99.90;;;;;;1885927;76;21564;-74
2021/05/25 00:04:32;;;;;;;4.67;0.30;;;9.90;99.90;;;;;;1886054;76;21360;-75
2021/05/25 00:06:58;;;;;;;1.02;0.40;;;9.90;99.90;;;;;;1886170;76;21038;-74
2021/05/25 00:09:24;;;;;;;0.20;0.20;;;9.80;99.90;;;;;;1886184;76;21148;-75
2021/05/25 00:11:50;;;;;;;2.55;0.50;;;9.90;99.90;;;;;;1886286;76;21272;-75
2021/05/25 00:14:21;;;;;;;0.20;0.20;;;9.80;99.90;;;;;;1889640;76;21059;-74
2021/05/25 00:16:47;;;;;;;2.05;0.30;;;9.80;99.90;;;;;;1887835;75;21087;-73
2021/05/25 00:19:13;;;;;;;0.45;0.42;;;9.70;99.90;;;;;;1889589;76;21168;-73
2021/05/25 00:21:39;;;;;;;0.42;0.42;;;9.70;99.90;;;;;;1887077;76;21140;-75
2021/05/25 00:24:05;;;;;;;0.72;0.50;;;9.70;99.90;;;;;;1886033;76;21188;-75
2021/05/25 00:26:31;;;;;;;0.80;0.30;;;9.70;99.90;;;;;;1885910;76;21140;-75
2021/05/25 00:28:57;;;;;;;0.20;0.20;;;9.60;99.90;;;;;;1886036;76;21103;-75
2021/05/25 00:31:23;;;;;;;0.20;0.20;;;9.60;99.90;;;;;;1885965;76;21121;-77
2021/05/25 00:33:49;;;;;;;0.33;0.20;;;9.70;99.90;;;;;;1885977;76;21590;-76
2021/05/25 00:36:16;;;;;;;0.33;0.30;;;9.60;99.90;;;;;;1886100;76;21538;-75
2021/05/25 00:38:42;;;;;;;1.15;0.40;;;9.60;99.90;;;;;;1886060;76;21115;-74
2021/05/25 00:41:09;;;;;;;0.47;0.40;;;9.60;99.90;;;;;;1885895;76;21144;-74
2021/05/25 00:43:35;;;;;;;0.55;0.33;;;9.60;99.90;;;;;;1886051;76;21074;-75
2021/05/25 00:46:01;;;;;;;1.92;0.35;;;9.60;99.90;;;;;;1886050;76;21074;-75
2021/05/25 00:48:27;;;;;;;1.27;0.40;;;9.50;99.90;;;;;;1885998;76;21046;-75
2021/05/25 00:50:55;;;;;;;0.13;0.13;;;9.50;99.90;;;;;;1886100;76;21082;-75
2021/05/25 00:53:21;;;;;;;1.02;0.40;;;9.50;99.90;;;;;;1886025;76;21078;-74
2021/05/25 00:55:47;;;;;;;1.45;0.30;;;9.50;99.90;;;;;;1885992;76;21107;-75
2021/05/25 00:58:13;;;;;;;0.70;0.40;;;9.50;99.90;;;;;;1886105;76;21074;-74
2021/05/25 01:00:39;;;;;;;1.45;0.50;;;9.40;99.90;;;;;;1885893;76;21082;-75
2021/05/25 01:03:05;;;;;;;1.65;0.42;;;9.40;99.90;;;;;;1885925;76;21054;-74
2021/05/25 01:05:32;;;;;;;0.75;0.30;;;9.40;99.90;;;;;;1886000;76;21143;-75
2021/05/25 01:07:58;;;;;;;0.78;0.30;;;9.40;99.90;;;;;;1885876;76;21186;-74
2021/05/25 01:10:33;;;;;;;0.37;0.30;;;9.40;99.90;;;;;;1885879;76;21051;-74
2021/05/25 01:12:58;;;;;;;0.42;0.42;;;9.30;99.90;;;;;;1884821;76;21157;-74
2021/05/25 01:15:23;;;;;;;0.72;0.30;;;9.30;99.90;;;;;;1885750;75;21508;-74
2021/05/25 01:17:51;;;;;;;0.72;0.37;;;9.20;99.90;;;;;;1885860;76;21105;-74
2021/05/25 01:20:17;;;;;;;0.62;0.20;;;9.20;99.90;;;;;;1885647;76;21231;-75
2021/05/25 01:22:43;;;;;;;0.60;0.45;;;9.20;99.90;;;;;;1885963;76;21140;-74
2021/05/25 01:25:09;;;;;;;2.83;0.70;;;9.00;99.90;;;;;;1879368;76;21125;-74
2021/05/25 01:27:35;;;;;;;2.17;0.50;;;9.00;99.90;;;;;;1885843;76;21095;-74
2021/05/25 01:30:01;;;;;;;1.20;0.40;;;9.00;99.90;;;;;;1885953;76;21085;-74
2021/05/25 01:32:28;;;;;;;1.55;0.40;;;8.90;99.90;;;;;;1885960;76;21231;-75
2021/05/25 01:34:54;;;;;;;2.08;0.42;;;8.80;99.90;;;;;;1885956;76;21082;-73
2021/05/25 01:37:20;;;;;;;0.30;0.30;;;8.70;99.90;;;;;;1886019;76;21219;-74
2021/05/25 01:39:52;;;;;;;1.52;0.65;;;8.70;99.90;;;;;;1885988;76;21058;-75
2021/05/25 01:42:14;;;;;;;2.25;0.50;;;8.70;99.90;;;;;;1884925;76;21158;-74
2021/05/25 01:44:40;;;;;;;0.20;0.20;;;8.70;99.90;;;;;;1885916;76;21158;-74
2021/05/25 01:47:06;;;;;;;0.50;0.33;;;8.60;99.90;;;;;;1886023;76;21078;-74
2021/05/25 01:49:32;;;;;;;1.17;0.42;;;8.60;99.90;;;;;;1886096;76;21086;-74
2021/05/25 01:51:58;;;;;;;0.57;0.45;;;8.60;99.90;;;;;;1886028;76;21113;-74
2021/05/25 01:54:24;;;;;;;0.28;0.28;;;8.50;99.90;;;;;;1886017;76;21082;-75
2021/05/25 01:56:51;;;;;;;0.45;0.45;;;8.50;99.90;;;;;;1882107;76;21513;-74
2021/05/25 01:59:17;;;;;;;0.60;0.30;;;8.50;99.90;;;;;;1885765;76;21525;-74
2021/05/25 02:01:43;;;;;;;1.77;0.40;;;8.50;99.90;;;;;;1885911;76;21074;-74
2021/05/25 02:04:09;;;;;;;3.33;0.60;;;8.60;99.90;;;;;;1886014;76;21070;-74
2021/05/25 02:06:35;;;;;;;0.30;0.30;;;8.50;99.90;;;;;;1885929;76;21613;-73
2021/05/25 02:09:01;;;;;;;1.32;0.25;;;8.40;99.90;;;;;;1885910;76;21522;-73
2021/05/25 02:11:27;;;;;;;4.03;0.50;;;8.40;99.90;;;;;;1885930;76;21610;-75
2021/05/25 02:13:54;;;;;;;1.30;0.45;;;8.30;99.90;;;;;;1885725;76;21141;-74
2021/05/25 02:16:20;;;;;;;1.30;0.68;;;8.20;99.90;;;;;;1885955;76;21117;-73
2021/05/25 02:18:46;;;;;;;1.10;0.78;;;8.10;99.90;;;;;;1886050;76;21152;-74
2021/05/25 02:21:12;;;;;;;1.55;0.40;;;8.10;99.90;;;;;;1885878;76;21134;-75
2021/05/25 02:23:38;;;;;;;1.62;0.88;;;8.00;99.90;;;;;;1885779;76;21074;-73
2021/05/25 02:26:04;;;;;;;5.20;1.17;;;8.00;99.90;;;;;;1885990;76;21066;-74
2021/05/25 02:28:30;;;;;;;0.68;0.60;;;8.10;99.90;;;;;;1885971;76;21187;-74
2021/05/25 02:30:56;;;;;;;3.15;0.80;;;8.00;99.90;;;;;;1885966;76;21081;-74
2021/05/25 02:33:23;;;;;;;1.35;0.47;;;8.00;99.90;;;;;;1885827;76;21509;-74
2021/05/25 02:35:49;;;;;;;2.47;0.57;;;7.90;99.90;;;;;;1894413;75;21423;-74
2021/05/25 02:38:15;;;;;;;2.02;0.50;;;8.00;99.90;;;;;;1886080;76;21070;-74
2021/05/25 02:40:41;;;;;;;0.65;0.50;;;8.00;99.90;;;;;;1886166;76;21062;-75
2021/05/25 02:43:07;;;;;;;0.60;0.40;;;8.00;99.90;;;;;;1886318;76;21161;-74
2021/05/25 02:45:33;;;;;;;1.37;0.47;;;8.00;99.90;;;;;;1886084;76;21148;-75
2021/05/25 02:47:59;;;;;;;1.02;0.62;;;7.90;99.90;;;;;;1886249;76;21143;-75
2021/05/25 02:50:25;;;;;;;3.27;0.80;;;7.90;99.90;;;;;;1886239;76;21075;-74
2021/05/25 02:52:52;;;;;;;2.25;0.65;;;7.90;99.90;;;;;;1886058;76;21077;-74
2021/05/25 02:55:18;;;;;;;1.65;0.57;;;7.90;99.90;;;;;;1885873;75;21086;-72
2021/05/25 02:57:44;;;;;;;0.98;0.47;;;7.80;99.90;;;;;;1885911;76;21613;-74
2021/05/25 03:00:10;;;;;;;3.30;0.88;;;7.80;99.90;;;;;;1885754;76;21563;-75
2021/05/25 03:02:36;;;;;;;4.72;0.55;;;7.80;99.90;;;;;;1885981;76;21553;-74
2021/05/25 03:05:02;;;;;;;0.68;0.33;;;7.60;99.90;;;;;;1885886;76;21172;-74
2021/05/25 03:07:29;;;;;;;0.70;0.40;;;7.60;99.90;;;;;;1885892;76;21075;-74
2021/05/25 03:09:55;;;;;;;0.40;0.40;;;7.60;99.90;;;;;;1885903;76;21064;-74
2021/05/25 03:12:21;;;;;;;0.88;0.33;;;7.60;99.90;;;;;;1885968;76;21081;-74
2021/05/25 03:14:47;;;;;;;1.55;0.60;;;7.60;99.90;;;;;;1885916;75;21067;-74
2021/05/25 03:17:13;;;;;;;0.40;0.40;;;7.70;99.90;;;;;;1886294;76;21078;-74
2021/05/25 03:19:39;;;;;;;0.37;0.37;;;7.70;99.90;;;;;;1886289;76;21081;-74
2021/05/25 03:22:05;;;;;;;0.90;0.40;;;7.70;99.90;;;;;;1886293;76;21156;-74
2021/05/25 03:24:31;;;;;;;1.50;0.78;;;7.60;99.90;;;;;;1886289;75;21459;-75
2021/05/25 03:26:58;;;;;;;2.35;0.50;;;7.50;99.90;;;;;;1886322;76;21568;-74
2021/05/25 03:29:24;;;;;;;2.83;0.55;;;7.50;99.90;;;;;;1886326;76;21086;-74
2021/05/25 03:31:50;;;;;;;0.50;0.50;;;7.50;99.90;;;;;;1886528;76;21150;-74
2021/05/25 03:34:17;;;;;;;0.45;0.33;;;7.40;99.90;;;;;;1886425;76;21150;-74
2021/05/25 03:36:43;;;;;;;0.78;0.47;;;7.30;99.90;;;;;;1886532;76;21165;-74
2021/05/25 03:39:09;;;;;;;2.05;0.40;;;7.30;99.90;;;;;;1886219;76;21148;-74
2021/05/25 03:41:35;;;;;;;1.20;0.70;;;7.20;99.90;;;;;;1897691;75;21074;-74
2021/05/25 03:44:01;;;;;;;1.85;0.75;;;7.20;99.90;;;;;;1886233;76;21141;-75
2021/05/25 03:46:27;;;;;;;0.78;0.57;;;7.20;99.90;;;;;;1886501;76;21530;-75
2021/05/25 03:48:53;;;;;;;0.80;0.40;;;7.30;99.90;;;;;;1886326;76;21051;-74
2021/05/25 03:51:19;;;;;;;1.98;0.62;;;7.30;99.90;;;;;;1886395;76;21103;-74
2021/05/25 03:53:46;;;;;;;0.30;0.30;;;7.30;99.90;;;;;;1886509;76;21102;-74
2021/05/25 04:01:17;;;;;;;2.40;0.60;;;7.20;99.90;;;;;;1886255;76;21119;-74
2021/05/25 04:03:43;;;;;;;0.78;0.50;;;7.20;99.90;;;;;;1886312;76;21047;-74
2021/05/25 04:06:09;;;;;;;4.15;0.62;;;7.20;99.90;;;;;;1886353;76;21070;-74
2021/05/25 04:08:35;;;;;;;3.70;0.70;;;7.30;99.90;;;;;;1886424;76;21172;-75
2021/05/25 04:11:01;;;;;;;2.95;0.80;;;7.20;99.90;;;;;;1886524;76;21208;-74
2021/05/25 04:13:27;;;;;;;2.92;0.60;;;7.30;99.90;;;;;;1886527;76;21102;-74
2021/05/25 04:15:55;;;;;;;10.72;0.70;;;7.10;99.90;;;;;;1886532;76;21083;-74
2021/05/25 04:18:21;;;;;;;2.52;0.80;;;7.20;99.90;;;;;;1886455;75;21141;-74
2021/05/25 04:20:47;;;;;;;1.98;0.72;;;7.20;99.90;;;;;;1886585;76;21137;-74
2021/05/25 04:23:13;;;;;;;1.70;0.50;;;7.20;99.90;;;;;;1886519;76;21165;-74
2021/05/25 04:25:39;;;;;;;6.10;0.80;;;7.30;99.90;;;;;;1886509;76;21099;-74
2021/05/25 04:28:05;;;;;;;1.07;0.72;;;7.30;99.90;;;;;;1886429;76;21110;-75
2021/05/25 04:30:32;;;;;;;1.45;0.50;;;7.40;99.90;;;;;;1886373;76;21051;-74
2021/05/25 04:32:58;;;;;;;2.58;0.72;;;7.40;99.90;;;;;;1886402;76;21103;-74
2021/05/25 04:35:24;;;;;;;0.85;0.40;;;7.50;99.90;;;;;;1886401;76;21074;-73
2021/05/25 04:37:55;;;;;;;0.40;0.35;;;7.50;99.90;;;;;;1886461;76;21107;-73
2021/05/25 04:40:21;;;;;;;4.47;0.30;;;7.70;99.90;;;;;;1886169;75;21671;-73
2021/05/25 04:42:47;;;;;;;1.95;0.50;;;7.80;99.90;;;;;;1886363;76;21091;-74
2021/05/25 04:45:13;;;;;;;2.65;0.70;;;7.90;99.90;;;;;;1886412;76;21200;-73
2021/05/25 04:47:39;;;;;;;2.02;0.70;;;8.00;99.90;;;;;;1886422;76;21070;-76
2021/05/25 04:50:05;;;;;;;2.17;0.53;;;8.00;99.90;;;;;;1886492;76;21111;-76
2021/05/25 04:52:33;;;;;;;10.48;0.40;;;8.00;99.90;;;;;;1886293;76;21079;-78
2021/05/25 04:54:59;;;;;;;2.35;0.72;;;8.10;99.90;;;;;;1886429;75;21512;-78
2021/05/25 04:57:25;;;;;;;0.75;0.40;;;8.20;99.90;;;;;;1886292;76;21571;-77
2021/05/25 04:59:52;;;;;;;1.35;0.33;;;8.30;99.90;;;;;;1886561;76;21114;-77
2021/05/25 05:02:18;;;;;;;0.30;0.30;;;8.60;99.90;;;;;;1886585;76;21099;-76
2021/05/25 05:04:44;;;;;;;1.55;0.37;;;8.70;99.90;;;;;;1886379;76;21596;-77
2021/05/25 05:07:10;;;;;;;0.30;0.30;;;8.70;99.90;;;;;;1886299;76;21557;-76
2021/05/25 05:09:37;;;;;;;4.05;0.20;;;8.90;99.90;;;;;;1886453;76;21185;-76
2021/05/25 05:12:03;;;;;;;0.50;0.37;;;9.10;99.90;;;;;;1886503;76;21095;-77
2021/05/25 05:14:29;;;;;;;2.05;0.55;;;9.30;99.90;;;;;;1886426;76;21071;-76
2021/05/25 05:16:55;;;;;;;1.05;0.30;;;9.30;99.90;;;;;;1886483;76;21145;-77
2021/05/25 05:19:21;;;;;;;0.30;0.30;;;9.40;99.90;;;;;;1886276;76;21114;-77
2021/05/25 05:21:47;;;;;;;0.60;0.40;;;9.40;99.90;;;;;;1886447;76;21558;-77
2021/05/25 05:24:13;;;;;;;0.82;0.40;;;9.50;99.90;;;;;;1886308;76;21074;-76
2021/05/25 05:26:40;;;;;;;1.25;0.23;;;9.50;99.90;;;;;;1886443;76;21106;-76
2021/05/25 05:29:06;;;;;;;0.20;0.20;;;9.60;99.90;;;;;;1886327;76;21051;-77
2021/05/25 05:31:32;;;;;;;2.12;0.40;;;9.70;99.90;;;;;;1886460;76;21107;-77
2021/05/25 05:33:58;;;;;;;1.07;0.30;;;9.80;99.90;;;;;;1886284;76;21074;-77
2021/05/25 05:36:24;;;;;;;0.75;0.35;;;9.90;99.90;;;;;;1886666;76;21137;-77
2021/05/25 05:38:50;;;;;;;4.42;0.37;;;10.00;99.90;;;;;;1886540;76;21099;-76
2021/05/25 05:41:16;;;;;;;0.95;0.40;;;10.10;99.90;;;;;;1886299;76;21031;-77
2021/05/25 05:43:42;;;;;;;1.12;0.28;;;10.00;99.90;;;;;;1886310;76;21054;-77
2021/05/25 05:46:09;;;;;;;1.27;0.40;;;9.90;99.90;;;;;;1886570;76;21145;-78
2021/05/25 05:48:35;;;;;;;2.75;0.68;;;9.90;99.90;;;;;;1886240;76;21073;-77
2021/05/25 05:51:01;;;;;;;2.27;0.40;;;10.00;99.90;;;;;;1886471;76;21540;-78
2021/05/25 05:53:27;;;;;;;0.30;0.30;;;10.10;99.90;;;;;;1886283;76;21043;-77
2021/05/25 05:55:53;;;;;;;0.78;0.33;;;10.10;99.90;;;;;;1886482;76;21114;-78
2021/05/25 05:58:19;;;;;;;0.30;0.30;;;10.10;99.90;;;;;;1886260;76;21078;-77
2021/05/25 06:00:45;;;;;;;2.30;0.62;;;10.20;99.90;;;;;;1886356;76;21086;-78
2021/05/25 06:03:12;;;;;;;0.80;0.30;;;10.40;99.90;;;;;;1886228;76;21074;-78
2021/05/25 06:05:38;;;;;;;1.10;0.40;;;11.50;99.90;;;;;;1886446;76;21103;-79
2021/05/25 06:08:04;;;;;;;0.90;0.20;;;12.20;99.90;;;;;;1886388;76;21078;-79
2021/05/25 06:10:31;;;;;;;2.75;1.00;;;12.10;99.90;;;;;;1886397;76;21186;-79
2021/05/25 06:12:57;;;;;;;1.62;0.50;;;12.10;99.90;;;;;;1886451;76;21550;-78
2021/05/25 06:15:24;;;;;;;4.72;0.60;;;12.70;99.90;;;;;;1886200;76;21541;-77
2021/05/25 06:17:50;;;;;;;1.15;0.42;;;12.50;99.90;;;;;;1886408;76;21197;-79
2021/05/25 06:20:16;;;;;;;1.25;0.50;;;12.00;99.90;;;;;;1886165;76;21609;-79
2021/05/25 06:22:43;;;;;;;2.17;0.40;;;12.70;99.90;;;;;;1885996;76;21530;-80
2021/05/25 06:25:09;;;;;;;1.55;0.42;;;12.70;99.90;;;;;;1886309;76;21446;-80
2021/05/25 06:27:35;;;;;;;2.65;0.40;;;13.50;99.90;;;;;;1886225;76;21559;-79
2021/05/25 06:30:01;;;;;;;0.20;0.20;;;12.60;99.90;;;;;;1886332;76;21586;-79
2021/05/25 06:32:27;;;;;;;3.10;0.53;;;12.00;99.90;;;;;;1886296;76;21078;-78
2021/05/25 06:34:54;;;;;;;0.85;0.40;;;12.00;99.90;;;;;;1886480;76;21103;-79
2021/05/25 06:37:20;;;;;;;0.95;0.35;;;11.80;99.90;;;;;;1886298;76;21051;-79
2021/05/25 06:39:46;;;;;;;0.50;0.30;;;11.50;99.90;;;;;;1886404;76;21107;-79
2021/05/25 06:42:13;;;;;;;0.82;0.35;;;11.20;99.90;;;;;;1886247;76;21175;-78
2021/05/25 06:44:39;;;;;;;1.60;0.47;;;11.10;99.90;;;;;;1886414;76;21111;-79
2021/05/25 06:47:05;;;;;;;0.75;0.40;;;11.30;99.90;;;;;;1886407;76;21032;-81
2021/05/25 06:49:31;;;;;;;0.20;0.20;;;11.90;99.90;;;;;;1886356;76;21571;-79
2021/05/25 06:51:57;;;;;;;0.30;0.20;;;11.70;99.90;;;;;;1886334;76;21526;-79
2021/05/25 06:54:23;;;;;;;1.65;0.20;;;11.50;99.90;;;;;;1886328;76;21616;-80
2021/05/25 06:56:49;;;;;;;3.10;0.80;;;11.40;99.90;;;;;;1886183;76;21459;-79
2021/05/25 06:59:15;;;;;;;3.58;0.68;;;11.60;99.90;;;;;;1886268;76;21536;-80
2021/05/25 07:01:41;;;;;;;1.57;0.50;;;11.70;99.90;;;;;;1886838;76;21212;-79
2021/05/25 07:04:08;;;;;;;2.05;0.45;;;11.70;99.90;;;;;;1886732;76;21074;-79
2021/05/25 07:06:34;;;;;;;1.17;0.50;;;11.70;99.90;;;;;;1888181;76;21125;-80
2021/05/25 07:09:00;;;;;;;0.68;0.20;;;11.50;99.90;;;;;;1887324;76;21050;-80
2021/05/25 07:11:26;;;;;;;1.55;0.70;;;11.40;99.90;;;;;;1901963;75;21078;-80
2021/05/25 07:13:52;;;;;;;0.30;0.30;;;11.50;99.90;;;;;;1887878;75;21103;-79
2021/05/25 07:16:18;;;;;;;1.47;0.62;;;11.60;99.90;;;;;;1886263;76;21120;-80
2021/05/25 07:18:44;;;;;;;0.30;0.30;;;11.70;99.90;;;;;;1886119;76;21076;-79
2021/05/25 07:21:11;;;;;;;2.08;0.40;;;11.60;99.90;;;;;;1886288;76;21534;-80
2021/05/25 07:23:37;;;;;;;1.25;0.28;;;11.50;99.90;;;;;;1886258;76;21082;-80
2021/05/25 07:26:03;;;;;;;0.60;0.20;;;11.60;99.90;;;;;;1886415;76;21095;-80
2021/05/25 07:28:29;;;;;;;1.50;0.40;;;11.90;99.90;;;;;;1886265;76;21144;-80
2021/05/25 07:30:55;;;;;;;3.42;0.40;;;12.00;99.90;;;;;;1886321;76;21584;-80
2021/05/25 07:33:24;;;;;;;1.45;0.28;;;12.00;99.90;;;;;;1886298;76;21530;-79
2021/05/25 07:35:51;;;;;;;3.55;0.93;;;12.40;99.90;;;;;;1886219;75;21162;-79
2021/05/25 07:38:17;;;;;;;1.82;0.35;;;12.40;99.90;;;;;;1886312;76;21059;-80
2021/05/25 07:40:45;;;;;;;1.20;0.30;;;12.20;99.90;;;;;;1886387;76;21140;-80
2021/05/25 07:43:11;;;;;;;6.90;0.50;;;12.50;99.90;;;;;;1888814;75;21110;-80
2021/05/25 07:45:37;;;;;;;1.30;0.42;;;12.50;99.90;;;;;;1886522;76;21098;-80
2021/05/25 07:48:03;;;;;;;5.12;0.60;;;12.40;99.90;;;;;;1886520;76;21086;-80
2021/05/25 07:50:29;;;;;;;1.10;0.40;;;12.20;99.90;;;;;;1886320;76;21043;-80
2021/05/25 07:52:55;;;;;;;2.05;0.50;;;12.30;99.90;;;;;;1886510;76;21115;-79
2021/05/25 07:55:23;;;;;;;0.35;0.25;;;12.30;99.90;;;;;;1886517;76;21142;-80
2021/05/25 07:57:49;;;;;;;1.85;0.50;;;12.20;99.90;;;;;;1886389;75;21144;-80
2021/05/25 08:00:15;;;;;;;1.98;0.50;;;12.20;99.90;;;;;;1886419;76;21110;-80
2021/05/25 08:02:41;;;;;;;5.97;1.25;;;12.20;99.90;;;;;;1888976;75;21061;-80
2021/05/25 08:05:07;;;;;;;0.55;0.45;;;12.30;99.90;;;;;;1886506;76;21530;-80
2021/05/25 08:07:33;;;;;;;1.05;0.70;;;12.30;99.90;;;;;;1886638;76;21490;-80
2021/05/25 08:09:59;;;;;;;3.70;0.60;;;12.40;99.90;;;;;;1886585;76;21066;-79
2021/05/25 08:12:26;;;;;;;0.95;0.40;;;12.50;99.90;;;;;;1886545;76;21466;-79
2021/05/25 08:14:53;;;;;;;2.52;0.40;;;12.40;99.90;;;;;;1886603;76;21560;-81
2021/05/25 08:17:23;;;;;;;0.72;0.30;;;12.40;99.90;;;;;;1886476;76;21101;-79
2021/05/25 08:19:48;;;;;;;1.40;0.57;;;12.50;99.90;;;;;;1886072;76;21149;-80
2021/05/25 08:22:14;;;;;;;3.45;0.40;;;12.60;99.90;;;;;;1886288;75;21152;-78
2021/05/25 08:24:40;;;;;;;1.25;0.35;;;12.80;99.90;;;;;;1886537;76;21531;-80
2021/05/25 08:27:06;;;;;;;1.07;0.45;;;12.80;99.90;;;;;;1886430;76;21520;-80
2021/05/25 08:29:32;;;;;;;0.50;0.30;;;12.70;99.90;;;;;;1886362;76;21626;-80
2021/05/25 08:31:58;;;;;;;1.82;0.42;;;12.80;99.90;;;;;;1886320;76;21427;-80
2021/05/25 08:34:25;;;;;;;0.35;0.35;;;12.60;99.90;;;;;;1886469;76;21486;-80
2021/05/25 08:36:51;;;;;;;2.15;0.40;;;12.60;99.90;;;;;;1886388;76;21082;-80
2021/05/25 08:39:17;;;;;;;1.85;0.50;;;12.80;99.90;;;;;;1862003;76;21062;-80
2021/05/25 08:41:43;;;;;;;1.07;0.60;;;12.90;99.90;;;;;;1886296;76;21085;-80
2021/05/25 08:44:09;;;;;;;6.92;0.60;;;13.10;99.90;;;;;;1886378;76;21086;-79
2021/05/25 08:46:37;;;;;;;1.95;0.42;;;13.00;99.90;;;;;;1886476;76;21458;-80
2021/05/25 08:49:11;;;;;;;2.27;0.50;;;13.10;99.90;;;;;;1886452;75;21122;-79
2021/05/25 08:51:33;;;;;;;1.42;0.33;;;13.10;99.90;;;;;;1885701;76;21200;-80
2021/05/25 08:53:59;;;;;;;0.50;0.20;;;13.10;99.90;;;;;;1886310;75;21168;-78
2021/05/25 08:56:27;;;;;;;2.02;0.45;;;13.20;99.90;;;;;;1886331;75;21097;-79
2021/05/25 08:58:53;;;;;;;0.37;0.20;;;13.30;99.90;;;;;;1886341;76;21110;-79
2021/05/25 09:01:19;;;;;;;0.62;0.20;;;13.40;99.90;;;;;;1886438;76;21078;-79
2021/05/25 09:03:45;;;;;;;1.22;0.35;;;13.50;99.90;;;;;;1886475;76;21110;-78
2021/05/25 09:06:11;;;;;;;1.25;0.40;;;13.40;99.90;;;;;;1886483;76;21113;-76
2021/05/25 09:08:38;;;;;;;0.42;0.20;;;13.50;99.90;;;;;;1886500;76;21204;-76
2021/05/25 09:11:04;;;;;;;0.33;0.20;;;13.40;99.90;;;;;;1886517;76;21082;-76
2021/05/25 09:13:30;;;;;;;1.40;0.30;;;13.30;99.90;;;;;;1886381;76;21140;-76
2021/05/25 09:15:58;;;;;;;1.45;0.50;;;12.90;99.90;;;;;;1886484;76;21121;-76
2021/05/25 09:18:25;;;;;;;0.25;0.25;;;12.80;99.90;;;;;;1886114;75;21114;-72
2021/05/25 09:20:52;;;;;;;2.02;0.50;;;12.80;99.90;;;;;;1885866;76;21470;-75
2021/05/25 09:23:18;;;;;;;1.00;0.42;;;12.90;99.90;;;;;;1886053;76;21156;-74
2021/05/25 09:25:44;;;;;;;8.93;0.45;;;13.10;99.90;;;;;;1886069;76;21082;-74
2021/05/25 09:28:11;;;;;;;0.40;0.33;;;13.10;99.90;;;;;;1886003;76;21082;-74
2021/05/25 09:30:37;;;;;;;1.10;0.45;;;13.10;99.90;;;;;;1885882;76;21059;-74
2021/05/25 09:33:03;;;;;;;0.20;0.10;;;13.10;99.90;;;;;;1885871;76;21129;-74
2021/05/25 09:35:30;;;;;;;0.37;0.13;;;13.30;99.90;;;;;;1885919;76;21082;-74
2021/05/25 09:37:56;;;;;;;2.85;0.95;;;13.40;99.90;;;;;;1885888;76;21082;-75
2021/05/25 09:40:22;;;;;;;1.05;0.30;;;13.40;99.90;;;;;;1886061;76;21154;-73
2021/05/25 09:42:50;;;;;;;0.30;0.30;;;13.30;99.90;;;;;;1886084;76;21078;-75
2021/05/25 09:45:16;;;;;;;0.50;0.50;;;13.40;99.90;;;;;;1885682;76;21522;-73
2021/05/25 09:47:43;;;;;;;2.85;0.93;;;13.40;99.90;;;;;;1885868;76;21203;-76
2021/05/25 09:50:09;;;;;;;3.50;0.57;;;13.60;99.90;;;;;;1885917;76;21144;-72
2021/05/25 09:52:35;;;;;;;5.92;0.60;;;13.70;99.90;;;;;;1885951;76;21130;-73
2021/05/25 09:55:01;;;;;;;1.45;0.57;;;13.70;99.90;;;;;;1886026;76;21149;-76
2021/05/25 09:57:27;;;;;;;4.97;0.50;;;13.60;99.90;;;;;;1885933;76;21136;-76
2021/05/25 09:59:53;;;;;;;2.72;0.50;;;13.40;99.90;;;;;;1886015;76;21137;-77
2021/05/25 10:02:20;;;;;;;1.67;0.40;;;13.50;99.90;;;;;;1880517;76;21090;-74
2021/05/25 10:04:46;;;;;;;5.67;0.82;;;13.70;99.90;;;;;;1885920;76;21159;-72
2021/05/25 10:07:12;;;;;;;1.65;0.75;;;13.70;99.90;;;;;;1885909;76;21086;-71
2021/05/25 10:09:38;;;;;;;2.75;0.50;;;13.60;99.90;;;;;;1885928;76;21078;-73
2021/05/25 10:12:04;;;;;;;3.67;0.68;;;13.80;99.90;;;;;;1885848;76;21051;-72
2021/05/25 10:14:31;;;;;;;0.42;0.33;;;13.80;99.90;;;;;;1885832;76;21122;-75
2021/05/25 10:17:00;;;;;;;0.93;0.50;;;13.70;99.90;;;;;;1886008;76;21144;-72
2021/05/25 10:19:26;;;;;;;5.33;0.42;;;13.60;99.90;;;;;;1885471;76;21095;-71
2021/05/25 10:21:52;;;;;;;1.90;0.62;;;14.10;99.90;;;;;;1885908;75;21131;-76
2021/05/25 10:24:18;;;;;;;2.17;0.50;;;14.60;99.90;;;;;;1886168;76;21086;-73
2021/05/25 10:26:45;;;;;;;2.92;0.42;;;14.80;99.90;;;;;;1886144;76;21097;-72
2021/05/25 10:29:11;;;;;;;3.72;0.70;;;15.00;99.90;;;;;;1888339;76;21184;-72
2021/05/25 10:31:37;;;;;;;0.33;0.28;;;15.20;99.90;;;;;;1888608;76;21094;-73
2021/05/25 10:34:03;;;;;;;3.15;0.47;;;14.80;99.90;;;;;;1857473;76;21062;-74
2021/05/25 10:36:29;;;;;;;2.95;0.40;;;14.30;99.90;;;;;;1887005;76;21161;-73
2021/05/25 10:38:55;;;;;;;1.80;0.40;;;14.40;99.90;;;;;;1887019;76;21070;-73
2021/05/25 10:41:21;;;;;;;1.27;0.60;;;14.60;99.90;;;;;;1884012;75;21160;-73
2021/05/25 10:43:48;;;;;;;0.82;0.20;;;14.90;99.90;;;;;;1880661;76;21156;-74
2021/05/25 10:46:15;;;;;;;1.10;0.42;;;15.10;99.90;;;;;;1880463;76;21090;-74
2021/05/25 10:48:41;;;;;;;1.65;0.50;;;14.80;99.90;;;;;;1880346;76;21086;-75
2021/05/25 10:51:07;;;;;;;1.02;0.55;;;14.90;99.90;;;;;;1880306;76;21140;-75
2021/05/25 10:53:33;;;;;;;1.50;0.30;;;14.90;99.90;;;;;;1880193;76;21230;-75
2021/05/25 10:55:59;;;;;;;1.57;0.25;;;14.90;99.90;;;;;;1880235;76;21078;-75
2021/05/25 10:58:29;;;;;;;2.33;0.72;;;14.40;99.90;;;;;;1880431;76;21471;-76
2021/05/25 11:00:56;;;;;;;6.30;0.45;;;14.20;99.90;;;;;;1880360;76;21059;-74
2021/05/25 11:03:22;;;;;;;3.70;0.30;;;13.90;99.90;;;;;;1880366;76;21063;-75
2021/05/25 11:05:48;;;;;;;2.15;0.70;;;13.70;99.90;;;;;;1880342;76;21078;-74
2021/05/25 11:08:15;;;;;;;6.65;0.30;;;13.70;99.90;;;;;;1880159;76;21075;-75
2021/05/25 11:10:41;;;;;;;0.90;0.30;;;13.80;99.90;;;;;;1880370;76;21078;-75
2021/05/25 11:13:07;;;;;;;4.90;0.33;;;14.20;99.90;;;;;;1880239;76;21086;-76
2021/05/25 11:15:33;;;;;;;2.20;0.80;;;14.50;99.90;;;;;;1880374;76;21163;-75
2021/05/25 11:17:59;;;;;;;3.47;1.22;;;14.50;99.90;;;;;;1881135;76;21164;-75
2021/05/25 11:20:25;;;;;;;0.55;0.20;;;14.20;99.90;;;;;;1880390;76;21144;-74
2021/05/25 11:22:51;;;;;;;0.45;0.40;;;14.10;99.90;;;;;;1880494;76;21047;-75
2021/05/25 11:25:17;;;;;;;1.15;0.65;;;14.00;99.90;;;;;;1880450;76;21479;-74
2021/05/25 11:27:45;;;;;;;8.23;0.88;;;13.80;99.90;;;;;;1880349;76;21650;-74
2021/05/25 11:30:14;;;;;;;1.45;0.75;;;13.60;99.90;;;;;;1880468;76;21156;-74
2021/05/25 11:32:39;;;;;;;1.15;0.70;;;13.50;99.90;;;;;;1880054;76;21169;-74
2021/05/25 11:35:05;;;;;;;1.47;0.62;;;13.30;99.90;;;;;;1880432;76;21083;-73
2021/05/25 11:37:31;;;;;;;1.17;0.37;;;12.90;99.90;;;;;;1880962;76;21051;-73
2021/05/25 11:39:59;;;;;;;0.80;0.40;;;12.40;99.90;;;;;;1880358;76;21081;-69
2021/05/25 11:42:25;;;;;;;1.75;0.30;;;12.40;99.90;;;;;;1880306;76;21156;-76
2021/05/25 11:44:52;;;;;;;2.12;0.33;;;12.50;99.90;;;;;;1880411;76;21144;-75
2021/05/25 11:47:18;;;;;;;1.07;0.45;;;12.80;99.90;;;;;;1880418;76;21556;-75
2021/05/25 11:49:44;;;;;;;0.95;0.40;;;13.10;99.90;;;;;;1880471;76;21514;-75
2021/05/25 11:52:10;;;;;;;0.93;0.50;;;13.60;99.90;;;;;;1880416;76;21556;-75
2021/05/25 11:54:36;;;;;;;3.02;0.50;;;14.00;99.90;;;;;;1880226;76;21625;-75
2021/05/25 11:57:03;;;;;;;4.15;0.53;;;14.30;99.90;;;;;;1880553;76;21494;-75
2021/05/25 11:59:29;;;;;;;1.45;0.55;;;15.10;99.90;;;;;;1880258;76;21095;-76
2021/05/25 12:01:55;;;;;;;3.05;0.60;;;15.30;99.90;;;;;;1880486;76;21152;-76
2021/05/25 12:04:21;;;;;;;1.12;0.35;;;14.60;99.90;;;;;;1880538;76;21155;-76
2021/05/25 12:06:47;;;;;;;6.17;0.53;;;13.90;99.90;;;;;;1880476;76;21144;-76
2021/05/25 12:09:13;;;;;;;3.30;0.55;;;14.00;99.90;;;;;;1880592;76;21117;-76
2021/05/25 12:11:40;;;;;;;0.57;0.47;;;14.70;99.90;;;;;;1880494;76;21520;-75
2021/05/25 12:14:07;;;;;;;0.90;0.40;;;15.20;99.90;;;;;;1885461;75;21093;-76
2021/05/25 12:16:33;;;;;;;5.22;1.20;;;15.40;99.90;;;;;;1880465;76;21596;-76
2021/05/25 12:18:59;;;;;;;0.93;0.50;;;15.40;99.90;;;;;;1880467;76;21486;-75
2021/05/25 12:21:25;;;;;;;1.10;0.55;;;15.60;99.90;;;;;;1880286;76;21522;-77
2021/05/25 12:23:51;;;;;;;1.25;0.45;;;15.90;99.90;;;;;;1880573;76;21137;-75
2021/05/25 12:26:19;;;;;;;1.02;0.30;;;16.00;99.90;;;;;;1880393;76;21051;-75
2021/05/25 12:28:48;;;;;;;1.15;0.50;;;16.50;99.90;;;;;;1880515;76;21063;-75
2021/05/25 12:31:14;;;;;;;1.95;0.50;;;16.30;99.90;;;;;;1880348;76;21195;-76
2021/05/25 12:33:40;;;;;;;0.82;0.40;;;16.30;99.90;;;;;;1880348;76;21148;-77
2021/05/25 12:36:07;;;;;;;1.57;0.65;;;16.90;99.90;;;;;;1880350;76;21159;-75
2021/05/25 12:38:33;;;;;;;6.05;0.82;;;16.60;99.90;;;;;;1880403;76;21081;-80
2021/05/25 12:40:59;;;;;;;1.32;0.45;;;16.70;99.90;;;;;;1880506;76;21062;-78
2021/05/25 12:43:25;;;;;;;8.53;0.70;;;17.10;99.90;;;;;;1880434;76;21084;-77
2021/05/25 12:45:51;;;;;;;0.80;0.60;;;16.50;99.90;;;;;;1880486;76;21140;-79
2021/05/25 12:48:17;;;;;;;2.10;0.40;;;16.20;99.90;;;;;;1880601;76;21140;-77
2021/05/25 12:50:43;;;;;;;0.88;0.50;;;15.60;99.90;;;;;;1880412;76;21179;-76